Etusivu
METAR-TAF:

METAR-TAF

Lentoasemat :

Kristianstad, Ruotsi

Leveyspiiri: 55-55N, Pituuspiiri: 014-05E, korkeus merenpinnasta: 23 m

Tämänhetkinen sää

Tämä raportti tehtiin 36 minuuttia sitten, kello 14.50 UTC
Tuuli 16 kn lounaasta
Lämpötila 24°C
Kosteus 57%
Ilmanpaine 1013 hPa
Näkyvyys 10 km tai enemmän
Hajanaisia pilviä 3400 ft:n korkeudessa

METAR: ESMK 201450Z 22016KT 9999 SCT034 24/15 Q1013

Aika: 17:26 (15:26 UTC)

Sääennuste

Tämä raportti tehtiin 1 tunti ja 24 minuuttia sitten, kello 14.02 UTC
Ennuste voimassa 20. päivästä klo 15 UTC - 20. päivään klo 19 UTC
Tuuli 17 kn lounaasta
Näkyvyys 10 km tai enemmän
Hajanaisia pilviä 2500 ft:n korkeudessa
Ajoittain
20. päivästä klo 15 UTC - 20. päivään klo 18 UTC
Tuuli 20 kn lounaasta puuskistuen 32 kn:hen

TAF: ESMK 201402Z 2015/2019 23017KT 9999 SCT025 TEMPO 2015/2018 23020G32KT

Säähavainnot ja -ennusteet yli 4000 lentoasemalta (METAR- ja TAF-raportit).

Käytössä olevat sääasemat on merkitty karttaan keltaisilla ja punaisilla pisteillä.

Aseta hiiri pisteen päälle nähdäksesi sääaseman nimen.

Klikkaa sitten nähdäksesi säähavainnot ja -ennusteet.

Kartan vaihtaminen: klikkaa mustalla rastilla varustettuja vihreitä pisteitä, niin voit zoomata sisään; viivalla varustettua vihreää pistettä, niin voit zoomata ulos tai vihreitä nuolia, niin pääset viereisille kartoille.


METAR-TAF: